createdAt,value
2022-08-22T00:00:59.479Z,92.60
2022-08-22T00:03:10.646Z,91.50
2022-08-22T00:03:15.045Z,90.90
2022-08-22T00:03:29.931Z,92.70
2022-08-22T00:06:17.288Z,92.80
2022-08-22T00:09:17.066Z,92.70
2022-08-22T00:12:17.558Z,92.80
2022-08-22T00:15:00.115Z,92.90
2022-08-22T00:17:50.046Z,92.70
2022-08-22T00:20:39.443Z,92.60
2022-08-22T00:23:34.016Z,92.60
2022-08-22T00:26:05.413Z,92.70
2022-08-22T00:28:39.182Z,92.50
2022-08-22T00:31:22.603Z,92.40
2022-08-22T00:34:01.390Z,92.60
2022-08-22T00:36:54.532Z,92.60
2022-08-22T00:39:34.747Z,92.70
2022-08-22T00:42:29.329Z,92.60
2022-08-22T00:45:18.468Z,92.60
2022-08-22T00:47:49.316Z,92.70
2022-08-22T00:50:26.719Z,92.80
2022-08-22T00:53:18.010Z,92.90
2022-08-22T00:56:19.202Z,93.00
2022-08-22T00:59:17.957Z,93.20
2022-08-22T01:02:11.404Z,93.20
2022-08-22T01:05:01.278Z,93.20
2022-08-22T01:08:07.403Z,93.50
2022-08-22T01:11:03.678Z,93.70
2022-08-22T01:13:50.549Z,93.50
2022-08-22T01:16:18.309Z,93.60
2022-08-22T01:19:10.527Z,93.60
2022-08-22T01:21:56.932Z,94.00
2022-08-22T01:25:03.625Z,93.90
2022-08-22T01:27:51.590Z,94.10
2022-08-22T01:30:38.452Z,93.90
2022-08-22T01:33:37.060Z,93.90
2022-08-22T01:36:11.194Z,94.10
2022-08-22T01:38:57.746Z,93.90
2022-08-22T01:41:31.500Z,94.00
2022-08-22T01:44:07.632Z,93.90
2022-08-22T01:46:44.177Z,93.90
2022-08-22T01:49:30.455Z,93.80
2022-08-22T01:52:36.579Z,93.80
2022-08-22T01:55:42.940Z,93.90
2022-08-22T01:58:25.612Z,93.80
2022-08-22T02:01:02.626Z,93.90
2022-08-22T02:04:01.924Z,93.80
2022-08-22T02:06:38.936Z,94.10
2022-08-22T02:09:20.909Z,93.90
2022-08-22T02:11:58.032Z,94.00
2022-08-22T02:14:33.118Z,94.00
2022-08-22T02:17:31.956Z,93.90
2022-08-22T02:20:29.122Z,94.00
2022-08-22T02:23:22.958Z,94.10
2022-08-22T02:26:03.410Z,94.10
2022-08-22T02:28:57.068Z,93.90
2022-08-22T02:31:40.067Z,93.90
2022-08-22T02:34:40.471Z,94.00
2022-08-22T02:37:10.207Z,94.20
2022-08-22T02:39:50.308Z,94.00
2022-08-22T02:42:30.231Z,94.10
2022-08-22T02:45:03.812Z,94.10
2022-08-22T02:48:09.496Z,94.10
2022-08-22T02:51:01.757Z,94.30
2022-08-22T02:53:53.585Z,94.40
2022-08-22T02:56:45.662Z,94.30
2022-08-22T02:59:32.725Z,94.30
2022-08-22T03:02:37.743Z,94.30
2022-08-22T03:05:20.915Z,94.40
2022-08-22T03:08:21.648Z,94.30
2022-08-22T03:10:56.796Z,94.30
2022-08-22T03:13:55.534Z,94.20
2022-08-22T03:16:38.473Z,94.20
2022-08-22T03:19:21.722Z,94.30
2022-08-22T03:22:11.795Z,94.30
2022-08-22T03:25:22.165Z,94.50
2022-08-22T03:28:22.053Z,94.60
2022-08-22T03:30:58.742Z,94.30
2022-08-22T03:33:29.871Z,94.40
2022-08-22T03:36:06.854Z,94.60
2022-08-22T03:38:34.940Z,94.50
2022-08-22T03:41:27.879Z,94.60
2022-08-22T03:44:17.392Z,94.70
2022-08-22T03:47:07.003Z,94.60
2022-08-22T03:50:10.132Z,94.80
2022-08-22T03:53:18.686Z,95.10
2022-08-22T03:56:20.561Z,95.20
2022-08-22T03:59:03.234Z,95.40
2022-08-22T04:01:47.460Z,95.50
2022-08-22T04:04:33.949Z,95.50
2022-08-22T04:07:37.068Z,95.60
2022-08-22T04:10:20.106Z,96.00
2022-08-22T04:13:25.187Z,96.00
2022-08-22T04:15:55.965Z,96.30
2022-08-22T04:19:01.096Z,96.20
2022-08-22T04:21:40.842Z,96.40
2022-08-22T04:24:23.501Z,96.20
2022-08-22T04:27:00.683Z,96.30
2022-08-22T04:29:35.710Z,96.30
2022-08-22T04:32:20.674Z,96.20
2022-08-22T04:35:08.575Z,96.40
2022-08-22T04:37:47.332Z,96.40
2022-08-22T04:40:48.673Z,96.30
2022-08-22T04:43:47.326Z,96.20
2022-08-22T04:46:39.627Z,96.10
2022-08-22T04:49:24.734Z,96.10
2022-08-22T04:52:15.434Z,96.10
2022-08-22T04:55:11.036Z,96.10
2022-08-22T04:58:02.786Z,96.20
2022-08-22T05:00:51.714Z,96.20
2022-08-22T05:03:24.097Z,96.10
2022-08-22T05:05:54.427Z,96.10
2022-08-22T05:08:27.606Z,96.00
2022-08-22T05:10:55.962Z,95.90
2022-08-22T05:13:33.505Z,95.80
2022-08-22T05:16:06.378Z,95.70
2022-08-22T05:18:41.367Z,95.50
2022-08-22T05:21:13.904Z,95.30
2022-08-22T05:23:54.973Z,95.30
2022-08-22T05:26:23.352Z,95.20
2022-08-22T05:28:57.737Z,95.00
2022-08-22T05:31:33.744Z,95.00
2022-08-22T05:34:24.096Z,94.90
2022-08-22T05:37:19.242Z,94.90
2022-08-22T05:39:54.221Z,94.90
2022-08-22T05:42:35.178Z,94.70
2022-08-22T05:45:12.126Z,94.70
2022-08-22T05:47:42.334Z,94.60
2022-08-22T05:50:50.468Z,94.60
2022-08-22T05:53:31.068Z,94.50
2022-08-22T05:56:03.147Z,94.40
2022-08-22T05:58:44.272Z,94.40
2022-08-22T06:01:34.678Z,94.50
2022-08-22T06:04:15.073Z,94.30
2022-08-22T06:06:55.672Z,94.20
2022-08-22T06:09:37.694Z,94.00
2022-08-22T06:12:21.999Z,94.40
2022-08-22T06:15:20.939Z,93.90
2022-08-22T06:17:52.857Z,94.10
2022-08-22T06:20:26.033Z,94.10
2022-08-22T06:23:02.125Z,94.00
2022-08-22T06:25:39.942Z,93.80
2022-08-22T06:28:12.632Z,93.70
2022-08-22T06:30:40.864Z,93.80
2022-08-22T06:33:12.949Z,93.60
2022-08-22T06:36:05.759Z,93.70
2022-08-22T06:39:10.701Z,93.60
2022-08-22T06:41:49.569Z,93.40
2022-08-22T06:44:22.644Z,93.50
2022-08-22T06:46:55.250Z,93.30
2022-08-22T06:49:26.027Z,93.40
2022-08-22T06:51:59.625Z,93.20
2022-08-22T06:54:34.413Z,93.00
2022-08-22T06:57:06.881Z,93.00
2022-08-22T06:59:38.330Z,92.70
2022-08-22T07:02:35.173Z,92.70
2022-08-22T07:05:05.263Z,92.50
2022-08-22T07:07:33.269Z,92.60
2022-08-22T07:10:02.259Z,92.50
2022-08-22T07:12:35.497Z,92.50
2022-08-22T07:15:51.804Z,92.50
2022-08-22T07:18:23.820Z,92.40
2022-08-22T07:21:04.769Z,92.20
2022-08-22T07:23:42.261Z,91.80
2022-08-22T07:26:29.116Z,91.70
2022-08-22T07:29:10.710Z,91.50
2022-08-22T07:32:09.963Z,91.70
2022-08-22T07:34:46.244Z,91.60
2022-08-22T07:37:48.971Z,91.60
2022-08-22T07:40:32.230Z,91.70
2022-08-22T07:43:06.827Z,91.30
2022-08-22T07:45:47.130Z,91.40
2022-08-22T07:48:26.765Z,91.40
2022-08-22T07:51:17.876Z,91.70
2022-08-22T07:54:00.955Z,91.20
2022-08-22T07:56:42.647Z,91.40
2022-08-22T07:59:15.016Z,91.20
2022-08-22T08:01:53.745Z,91.10
2022-08-22T08:04:30.724Z,91.00
2022-08-22T08:07:01.308Z,90.70
2022-08-22T08:09:33.481Z,90.70
2022-08-22T08:12:06.116Z,90.40
2022-08-22T08:14:39.941Z,90.00
2022-08-22T08:17:28.786Z,90.20
2022-08-22T08:20:05.426Z,89.60
2022-08-22T08:22:34.811Z,89.20
2022-08-22T08:25:04.076Z,89.80
2022-08-22T08:27:54.255Z,89.10
2022-08-22T08:30:24.980Z,89.60
2022-08-22T08:33:24.074Z,89.20
2022-08-22T08:36:02.794Z,88.30
2022-08-22T08:38:47.188Z,87.10
2022-08-22T08:41:24.563Z,86.90
2022-08-22T08:44:08.053Z,86.90
2022-08-22T08:47:04.392Z,86.10
2022-08-22T08:50:09.516Z,85.90
2022-08-22T08:53:07.843Z,86.60
2022-08-22T08:56:11.351Z,85.80
2022-08-22T08:59:00.674Z,84.40
2022-08-22T09:01:34.386Z,84.70
2022-08-22T09:04:28.826Z,85.00
2022-08-22T09:07:03.957Z,84.40
2022-08-22T09:10:03.145Z,84.70
2022-08-22T09:13:11.269Z,83.60
2022-08-22T09:15:41.104Z,82.70
2022-08-22T09:18:46.780Z,81.40
2022-08-22T09:21:37.299Z,81.80
2022-08-22T09:24:14.814Z,82.40
2022-08-22T09:26:57.103Z,82.20
2022-08-22T09:29:30.962Z,82.10
2022-08-22T09:32:08.053Z,81.90
2022-08-22T09:34:53.288Z,81.40
2022-08-22T09:37:50.039Z,81.60
2022-08-22T09:40:29.485Z,80.60
2022-08-22T09:43:21.525Z,80.70
2022-08-22T09:46:31.994Z,80.10
2022-08-22T09:49:22.433Z,77.90
2022-08-22T09:52:05.118Z,78.80
2022-08-22T09:54:57.408Z,78.40
2022-08-22T09:57:51.262Z,78.80
2022-08-22T10:00:45.651Z,77.50
2022-08-22T10:03:28.104Z,76.60
2022-08-22T10:06:12.170Z,76.60
2022-08-22T10:08:46.328Z,76.80
2022-08-22T10:11:21.184Z,77.10
2022-08-22T10:14:05.439Z,76.80
2022-08-22T10:17:00.223Z,76.40
2022-08-22T10:19:38.128Z,74.10
2022-08-22T10:22:29.863Z,74.50
2022-08-22T10:25:05.335Z,73.00
2022-08-22T10:27:55.053Z,74.60
2022-08-22T10:30:33.916Z,74.50
2022-08-22T10:33:13.658Z,72.70
2022-08-22T10:35:51.519Z,74.20
2022-08-22T10:38:29.568Z,74.10
2022-08-22T10:41:28.715Z,74.70
2022-08-22T10:44:24.199Z,71.80
2022-08-22T10:46:54.966Z,72.60
2022-08-22T10:49:29.026Z,72.30
2022-08-22T10:52:15.243Z,72.30
2022-08-22T10:55:04.269Z,71.80
2022-08-22T10:57:47.434Z,70.80
2022-08-22T11:00:28.548Z,70.50
2022-08-22T11:03:15.160Z,69.60
2022-08-22T11:05:52.866Z,70.10
2022-08-22T11:08:42.332Z,69.90
2022-08-22T11:11:25.710Z,69.60
2022-08-22T11:14:35.991Z,70.30
2022-08-22T11:17:32.396Z,69.70
2022-08-22T11:20:08.963Z,68.90
2022-08-22T11:22:48.921Z,69.00
2022-08-22T11:25:35.772Z,68.30
2022-08-22T11:28:42.310Z,68.10
2022-08-22T11:31:21.632Z,68.30
2022-08-22T11:33:59.227Z,68.70
2022-08-22T11:36:33.329Z,69.30
2022-08-22T11:39:18.543Z,69.60
2022-08-22T11:42:08.327Z,69.40
2022-08-22T11:44:50.701Z,70.00
2022-08-22T11:47:26.331Z,69.30
2022-08-22T11:50:13.698Z,70.10
2022-08-22T11:53:19.250Z,70.50
2022-08-22T11:55:53.533Z,69.20
2022-08-22T11:58:50.989Z,69.50
2022-08-22T12:01:48.446Z,69.80
2022-08-22T12:04:42.650Z,69.70
2022-08-22T12:07:30.632Z,70.10
2022-08-22T12:10:25.832Z,69.60
2022-08-22T12:13:01.492Z,69.50
2022-08-22T12:15:40.619Z,69.90
2022-08-22T12:18:09.177Z,69.30
2022-08-22T12:20:56.075Z,69.80
2022-08-22T12:23:49.429Z,70.30
2022-08-22T12:26:48.436Z,70.40
2022-08-22T12:29:33.862Z,70.40
2022-08-22T12:32:36.592Z,70.60
2022-08-22T12:35:30.228Z,70.50
2022-08-22T12:38:28.844Z,71.00
2022-08-22T12:41:08.065Z,69.50
2022-08-22T12:43:49.510Z,69.40
2022-08-22T12:46:22.942Z,69.60
2022-08-22T12:49:20.481Z,69.70
2022-08-22T12:52:09.053Z,69.40
2022-08-22T12:54:42.820Z,69.60
2022-08-22T12:57:40.188Z,69.60
2022-08-22T13:00:29.538Z,69.30
2022-08-22T13:03:02.560Z,68.00
2022-08-22T13:05:40.412Z,68.50
2022-08-22T13:08:29.333Z,68.80
2022-08-22T13:11:09.838Z,68.20
2022-08-22T13:13:56.042Z,68.30
2022-08-22T13:16:34.112Z,68.10
2022-08-22T13:19:17.687Z,68.70
2022-08-22T13:21:48.873Z,68.30
2022-08-22T13:24:38.414Z,68.70
2022-08-22T13:27:15.485Z,69.30
2022-08-22T13:29:57.082Z,69.40
2022-08-22T13:32:44.271Z,69.70
2022-08-22T13:35:29.942Z,69.50
2022-08-22T13:38:12.501Z,70.10
2022-08-22T13:40:47.352Z,70.10
2022-08-22T13:43:43.949Z,70.30
2022-08-22T13:46:12.275Z,70.50
2022-08-22T13:48:50.351Z,70.70
2022-08-22T13:51:28.383Z,70.90
2022-08-22T13:54:12.036Z,71.10
2022-08-22T13:56:51.950Z,71.70
2022-08-22T13:59:49.108Z,71.00
2022-08-22T14:02:38.192Z,71.20
2022-08-22T14:05:36.543Z,71.70
2022-08-22T14:08:18.581Z,72.00
2022-08-22T14:10:55.138Z,72.00
2022-08-22T14:14:03.416Z,72.00
2022-08-22T14:16:40.493Z,72.50
2022-08-22T14:19:16.488Z,72.70
2022-08-22T14:21:59.170Z,72.90
2022-08-22T14:24:45.342Z,72.80
2022-08-22T14:27:17.045Z,72.70
2022-08-22T14:29:53.440Z,72.90
2022-08-22T14:32:25.944Z,72.80
2022-08-22T14:35:38.244Z,72.80
2022-08-22T14:38:17.275Z,73.20
2022-08-22T14:40:47.520Z,73.40
2022-08-22T14:43:40.413Z,73.10
2022-08-22T14:46:12.992Z,72.70
2022-08-22T14:49:04.368Z,72.70
2022-08-22T14:51:33.050Z,72.50
2022-08-22T14:54:21.546Z,72.50
2022-08-22T14:56:54.013Z,72.50
2022-08-22T14:59:28.130Z,72.50
2022-08-22T15:02:31.522Z,72.60
2022-08-22T15:05:45.007Z,72.80
2022-08-22T15:08:24.162Z,72.70
2022-08-22T15:11:08.822Z,72.80
2022-08-22T15:13:40.472Z,72.30
2022-08-22T15:16:19.468Z,72.40
2022-08-22T15:18:52.057Z,72.20
2022-08-22T15:21:25.393Z,72.20
2022-08-22T15:23:59.753Z,72.40
2022-08-22T15:26:35.621Z,72.20
2022-08-22T15:29:17.826Z,72.40
2022-08-22T15:31:53.006Z,72.20
2022-08-22T15:34:52.643Z,72.30
2022-08-22T15:37:20.714Z,71.80
2022-08-22T15:40:07.532Z,72.40
2022-08-22T15:42:46.523Z,72.20
2022-08-22T15:45:36.297Z,73.00
2022-08-22T15:48:36.826Z,74.30
2022-08-22T15:51:13.809Z,74.90
2022-08-22T15:53:44.883Z,75.50
2022-08-22T15:56:13.178Z,75.80
2022-08-22T15:58:49.528Z,76.00
2022-08-22T16:01:24.696Z,76.00
2022-08-22T16:03:58.970Z,75.80
2022-08-22T16:06:45.306Z,75.80
2022-08-22T16:09:37.223Z,75.90
2022-08-22T16:12:31.393Z,76.20
2022-08-22T16:15:01.992Z,76.70
2022-08-22T16:17:30.372Z,77.10
2022-08-22T16:20:17.500Z,77.60
2022-08-22T16:22:57.731Z,78.30
2022-08-22T16:25:50.503Z,78.80
2022-08-22T16:28:56.968Z,79.10
2022-08-22T16:31:20.775Z,79.10
2022-08-22T16:33:49.200Z,79.20
2022-08-22T16:36:41.938Z,79.20
2022-08-22T16:39:13.327Z,80.00
2022-08-22T16:41:43.864Z,79.70
2022-08-22T16:44:30.750Z,79.80
2022-08-22T16:47:16.044Z,80.50
2022-08-22T16:49:50.562Z,80.50
2022-08-22T16:52:21.544Z,80.30
2022-08-22T16:55:01.439Z,80.90
2022-08-22T16:58:05.381Z,80.80
2022-08-22T17:01:03.566Z,81.10
2022-08-22T17:03:58.855Z,81.00
2022-08-22T17:06:36.068Z,81.60
2022-08-22T17:09:22.443Z,81.60
2022-08-22T17:12:29.835Z,81.80
2022-08-22T17:15:54.813Z,82.10
2022-08-22T17:18:25.787Z,82.50
2022-08-22T17:21:16.587Z,82.00
2022-08-22T17:24:31.680Z,82.80
2022-08-22T17:27:22.514Z,82.70
2022-08-22T17:30:02.711Z,82.90
2022-08-22T17:33:11.919Z,82.90
2022-08-22T17:35:43.814Z,83.10
2022-08-22T17:38:48.752Z,82.80
2022-08-22T17:41:51.201Z,83.70
2022-08-22T17:44:37.818Z,83.70
2022-08-22T17:47:16.388Z,83.30
2022-08-22T17:49:54.213Z,83.70
2022-08-22T17:52:36.748Z,83.90
2022-08-22T17:55:04.547Z,84.20
2022-08-22T17:57:57.944Z,84.20
2022-08-22T18:00:26.472Z,84.70
2022-08-22T18:03:26.491Z,84.70
2022-08-22T18:06:12.957Z,85.50
2022-08-22T18:09:19.828Z,85.30
2022-08-22T18:11:56.806Z,85.50
2022-08-22T18:14:33.540Z,86.00
2022-08-22T18:17:15.493Z,86.10
2022-08-22T18:19:54.616Z,86.60
2022-08-22T18:22:32.354Z,86.70
2022-08-22T18:25:11.345Z,86.90
2022-08-22T18:28:02.373Z,86.50
2022-08-22T18:30:39.090Z,86.60
2022-08-22T18:33:22.789Z,86.00
2022-08-22T18:36:01.301Z,85.90
2022-08-22T18:38:41.172Z,85.60
2022-08-22T18:41:42.024Z,85.30
2022-08-22T18:44:21.237Z,85.30
2022-08-22T18:46:53.262Z,85.00
2022-08-22T18:49:21.193Z,84.60
2022-08-22T18:52:15.217Z,84.50
2022-08-22T18:55:15.076Z,84.30
2022-08-22T18:57:55.032Z,84.60
2022-08-22T19:00:39.283Z,85.10
2022-08-22T19:03:39.676Z,85.00
2022-08-22T19:06:13.927Z,84.90
2022-08-22T19:09:01.095Z,85.00
2022-08-22T19:12:01.896Z,85.20
2022-08-22T19:14:41.703Z,85.40
2022-08-22T19:17:38.937Z,85.30
2022-08-22T19:20:44.402Z,85.50
2022-08-22T19:23:51.143Z,85.60
2022-08-22T19:26:30.855Z,86.00
2022-08-22T19:29:17.398Z,86.00
2022-08-22T19:31:53.315Z,86.30
2022-08-22T19:34:31.049Z,86.10
2022-08-22T19:37:32.371Z,86.40
2022-08-22T19:40:10.656Z,86.60
2022-08-22T19:42:41.752Z,86.60
2022-08-22T19:45:27.479Z,86.60
2022-08-22T19:48:01.547Z,86.80
2022-08-22T19:50:34.452Z,86.80
2022-08-22T19:53:05.132Z,87.00
2022-08-22T19:55:39.492Z,87.10
2022-08-22T19:58:37.864Z,87.30
2022-08-22T20:01:12.195Z,87.60
2022-08-22T20:04:05.188Z,87.40
2022-08-22T20:06:44.872Z,88.00
2022-08-22T20:09:28.218Z,88.00
2022-08-22T20:12:31.811Z,88.20
2022-08-22T20:15:22.634Z,88.60
2022-08-22T20:20:56.910Z,88.50
2022-08-22T20:23:31.539Z,89.10
2022-08-22T20:26:00.515Z,89.10
2022-08-22T20:28:52.570Z,89.20
2022-08-22T20:31:24.751Z,89.50
2022-08-22T20:33:58.866Z,89.40
2022-08-22T20:36:28.345Z,89.60
2022-08-22T20:39:08.331Z,89.60
2022-08-22T20:42:01.748Z,90.10
2022-08-22T20:44:43.073Z,90.00
2022-08-22T20:47:19.587Z,89.90
2022-08-22T20:49:53.444Z,90.00
2022-08-22T20:52:31.052Z,90.00
2022-08-22T20:55:17.085Z,90.10
2022-08-22T20:58:18.753Z,90.20
2022-08-22T21:00:49.971Z,90.30
2022-08-22T21:03:51.017Z,90.30
2022-08-22T21:06:29.776Z,90.50
2022-08-22T21:09:37.957Z,90.40
2022-08-22T21:12:10.371Z,90.80
2022-08-22T21:14:46.279Z,90.70
2022-08-22T21:17:22.624Z,90.80
2022-08-22T21:19:51.217Z,91.00
2022-08-22T21:22:28.044Z,90.90
2022-08-22T21:24:58.100Z,91.10
2022-08-22T21:27:33.347Z,91.10
2022-08-22T21:30:06.749Z,91.10
2022-08-22T21:32:46.916Z,91.20
2022-08-22T21:35:54.141Z,91.20
2022-08-22T21:38:22.731Z,91.50
2022-08-22T21:40:50.847Z,91.30
2022-08-22T21:43:37.408Z,91.40
2022-08-22T21:46:07.365Z,91.50
2022-08-22T21:48:37.983Z,91.40
2022-08-22T21:51:28.755Z,91.40
2022-08-22T21:54:32.098Z,91.60
2022-08-22T21:57:31.879Z,91.70
2022-08-22T22:00:00.143Z,91.70
2022-08-22T22:02:28.690Z,91.50
2022-08-22T22:04:57.363Z,91.50
2022-08-22T22:07:25.969Z,91.50
2022-08-22T22:09:55.209Z,91.50
2022-08-22T22:12:24.174Z,91.50
2022-08-22T22:14:52.385Z,91.50
2022-08-22T22:17:21.308Z,91.50
2022-08-22T22:19:49.755Z,91.50
2022-08-22T22:22:17.868Z,91.50
2022-08-22T22:24:45.970Z,91.50
2022-08-22T22:27:17.100Z,91.50
2022-08-22T22:29:45.243Z,91.50
2022-08-22T22:32:13.434Z,91.50
2022-08-22T22:34:41.396Z,91.50
2022-08-22T22:37:12.071Z,91.40
2022-08-22T22:39:40.700Z,91.50
2022-08-22T22:42:09.610Z,91.50
2022-08-22T22:44:37.441Z,91.50
2022-08-22T22:47:06.668Z,91.50
2022-08-22T22:49:34.529Z,91.60
2022-08-22T22:52:02.496Z,91.60
2022-08-22T22:54:32.790Z,91.60
2022-08-22T22:57:02.246Z,91.60
2022-08-22T22:59:30.072Z,91.70
2022-08-22T23:02:02.181Z,91.70
2022-08-22T23:04:31.122Z,92.00
2022-08-22T23:06:59.181Z,91.80
2022-08-22T23:09:38.207Z,91.80
2022-08-22T23:12:14.014Z,91.90
2022-08-22T23:14:42.334Z,92.00
2022-08-22T23:17:10.752Z,92.00
2022-08-22T23:19:39.238Z,92.10
2022-08-22T23:22:08.101Z,92.20
2022-08-22T23:24:38.134Z,92.30
2022-08-22T23:27:08.039Z,92.30
2022-08-22T23:29:38.924Z,92.40
2022-08-22T23:32:07.315Z,92.40
2022-08-22T23:34:38.584Z,92.50
2022-08-22T23:37:08.328Z,92.50
2022-08-22T23:39:38.464Z,92.50
2022-08-22T23:42:07.685Z,92.60
2022-08-22T23:44:38.166Z,92.60
2022-08-22T23:47:07.068Z,92.60
2022-08-22T23:49:35.662Z,92.70
2022-08-22T23:52:04.773Z,92.70
2022-08-22T23:54:34.130Z,92.70
2022-08-22T23:57:11.979Z,92.80
2022-08-22T23:59:47.899Z,92.70
